Time;durP1;ratioP1;P1;durP2;ratioP2;P2;SDS_P1;SDS_P2;PMS_P1;PMS_P2;Temp;Humidity;BMP_temperature;BMP_pressure;BME280_temperature;BME280_humidity;BME280_pressure;Samples;Min_cycle;Max_cycle;Signal;HPM_P1;HPM_P2
2021/12/19 00:01:24;;;;;;;1.27;0.93;;;;;;;6.49;100.00;102256.09;5070917;28;20630;-77
2021/12/19 00:09:01;;;;;;;0.73;0.73;;;;;;;6.43;100.00;102243.47;5070675;28;20243;-77
2021/12/19 00:11:27;;;;;;;5.80;1.70;;;;;;;6.40;100.00;102255.66;5070635;28;20354;-77
2021/12/19 00:13:53;;;;;;;0.83;0.70;;;;;;;6.38;100.00;102252.34;5070470;28;20565;-78
2021/12/19 00:16:19;;;;;;;1.00;1.00;;;;;;;6.37;100.00;102242.56;5070431;28;20595;-79
2021/12/19 00:18:46;;;;;;;2.03;1.87;;;;;;;6.36;100.00;102240.88;5070630;28;20170;-76
2021/12/19 00:21:12;;;;;;;1.67;1.27;;;;;;;6.34;100.00;102240.28;5070409;28;20175;-76
2021/12/19 00:23:38;;;;;;;0.97;0.90;;;;;;;6.30;100.00;102250.00;5070294;28;20175;-75
2021/12/19 00:26:04;;;;;;;1.90;1.37;;;;;;;6.25;100.00;102245.28;5070354;28;20166;-76
2021/12/19 00:28:29;;;;;;;1.00;0.73;;;;;;;6.21;100.00;102252.22;5070582;28;20174;-76
2021/12/19 00:30:55;;;;;;;3.07;2.70;;;;;;;6.16;100.00;102235.03;5069065;28;20181;-76
2021/12/19 00:33:20;;;;;;;3.17;2.33;;;;;;;6.14;100.00;102234.44;5068781;28;20553;-76
2021/12/19 00:35:46;;;;;;;2.70;2.50;;;;;;;6.12;100.00;102248.25;5070377;28;20247;-76
2021/12/19 00:38:11;;;;;;;2.70;2.50;;;;;;;6.09;100.00;102237.03;5070484;28;20263;-77
2021/12/19 00:40:37;;;;;;;0.93;0.93;;;;;;;6.06;100.00;102210.38;5070627;28;20175;-76
2021/12/19 00:43:07;;;;;;;1.43;1.33;;;;;;;6.03;100.00;102225.22;5069059;28;20171;-77
2021/12/19 00:45:35;;;;;;;1.43;1.33;;;;;;;6.01;100.00;102234.69;5070288;28;20158;-76
2021/12/19 00:48:03;;;;;;;2.40;1.67;;;;;;;6.00;100.00;102225.72;5070426;28;20170;-77
2021/12/19 00:50:30;;;;;;;2.67;2.23;;;;;;;6.01;100.00;102221.94;5070400;28;20181;-76
2021/12/19 00:52:56;;;;;;;1.87;1.77;;;;;;;5.99;100.00;102215.09;5070218;28;20194;-76
2021/12/19 00:55:24;;;;;;;3.67;3.37;;;;;;;5.98;100.00;102222.41;5070504;28;20185;-76
2021/12/19 00:57:51;;;;;;;1.97;1.73;;;;;;;5.99;100.00;102228.66;5070601;28;20223;-76
2021/12/19 01:00:20;;;;;;;4.17;3.17;;;;;;;6.00;100.00;102219.47;5070511;28;20202;-77
2021/12/19 01:02:46;;;;;;;3.00;1.77;;;;;;;5.96;100.00;102216.41;5070223;28;20288;-76
2021/12/19 01:05:12;;;;;;;2.40;1.90;;;;;;;5.94;100.00;102213.94;5070748;28;20660;-76
2021/12/19 01:07:38;;;;;;;3.37;2.53;;;;;;;5.95;100.00;102218.28;5074186;28;20170;-77
2021/12/19 01:10:06;;;;;;;0.87;0.83;;;;;;;5.95;100.00;102223.72;5074486;28;20182;-77
2021/12/19 01:12:32;;;;;;;1.83;1.73;;;;;;;5.97;100.00;102218.88;5082804;28;20571;-77
2021/12/19 01:14:57;;;;;;;1.67;1.57;;;;;;;5.98;100.00;102214.28;5077027;28;20178;-77
2021/12/19 01:17:23;;;;;;;3.40;2.90;;;;;;;5.99;100.00;102217.81;5075372;28;20174;-77
2021/12/19 01:19:48;;;;;;;2.37;2.17;;;;;;;5.99;100.00;102209.69;5074507;28;20174;-77
2021/12/19 01:22:14;;;;;;;2.13;1.93;;;;;;;6.00;100.00;102206.72;5074040;28;20163;-77
2021/12/19 01:24:39;;;;;;;1.13;1.03;;;;;;;5.99;100.00;102210.50;5073755;28;20175;-77
2021/12/19 01:27:08;;;;;;;1.07;0.87;;;;;;;5.98;100.00;102195.28;5073846;28;20174;-77
2021/12/19 01:29:33;;;;;;;15.17;1.70;;;;;;;5.97;100.00;102204.50;5073930;28;20210;-77
2021/12/19 01:31:58;;;;;;;4.10;2.07;;;;;;;5.96;100.00;102198.25;5073807;28;20174;-77
2021/12/19 01:34:24;;;;;;;3.87;3.00;;;;;;;5.96;100.00;102192.81;5073805;28;20297;-77
2021/12/19 01:36:50;;;;;;;0.77;0.77;;;;;;;5.97;100.00;102193.63;5073758;28;20198;-77
2021/12/19 01:39:15;;;;;;;1.10;1.00;;;;;;;5.97;100.00;102196.34;5073714;28;20648;-77
2021/12/19 01:41:50;;;;;;;1.40;1.30;;;;;;;5.97;100.00;102189.03;5073593;28;20170;-77
2021/12/19 01:44:15;;;;;;;1.73;1.63;;;;;;;5.94;100.00;102172.41;5073745;28;20539;-77
2021/12/19 01:46:40;;;;;;;1.37;1.23;;;;;;;5.95;100.00;102169.47;5073608;28;20179;-77
2021/12/19 01:49:06;;;;;;;1.60;1.50;;;;;;;5.94;100.00;102170.53;5073499;28;20574;-77
2021/12/19 01:51:32;;;;;;;0.63;0.63;;;;;;;5.93;100.00;102173.47;5072163;28;20262;-77
2021/12/19 01:53:57;;;;;;;1.37;1.37;;;;;;;5.93;100.00;102162.59;5073296;28;20226;-77
2021/12/19 01:56:23;;;;;;;1.47;1.27;;;;;;;5.92;100.00;102148.22;5073182;28;20178;-76
2021/12/19 01:58:48;;;;;;;1.67;1.57;;;;;;;5.93;100.00;102147.19;5073602;28;20170;-77
2021/12/19 02:01:14;;;;;;;1.80;1.70;;;;;;;5.94;100.00;102151.53;5073305;28;20173;-77
2021/12/19 02:03:39;;;;;;;1.93;1.83;;;;;;;5.96;100.00;102144.00;5073227;28;20234;-76
2021/12/19 02:06:05;;;;;;;2.07;1.87;;;;;;;5.97;100.00;102148.34;5073235;28;20178;-77
2021/12/19 02:08:30;;;;;;;2.00;1.37;;;;;;;5.96;100.00;102135.03;5073075;28;20179;-77
2021/12/19 02:10:56;;;;;;;1.10;1.03;;;;;;;5.93;100.00;102136.34;5073048;28;20174;-77
2021/12/19 02:13:21;;;;;;;1.57;1.07;;;;;;;5.95;100.00;102133.38;5073020;28;20210;-76
2021/12/19 02:15:47;;;;;;;1.60;1.50;;;;;;;5.94;100.00;102140.69;5072826;28;20170;-77
2021/12/19 02:18:19;;;;;;;1.33;1.33;;;;;;;6.00;100.00;102132.66;5072386;28;20167;-77
2021/12/19 02:20:50;;;;;;;0.37;0.37;;;;;;;6.02;100.00;102120.50;5072968;28;20178;-77
2021/12/19 02:23:17;;;;;;;1.90;1.20;;;;;;;6.03;100.00;102126.75;5072703;28;20625;-77
2021/12/19 02:25:42;;;;;;;1.90;1.33;;;;;;;6.01;100.00;102113.41;5072787;28;20212;-76
2021/12/19 02:28:09;;;;;;;2.23;0.60;;;;;;;6.02;100.00;102116.94;5072734;28;20230;-76
2021/12/19 02:30:35;;;;;;;1.60;1.50;;;;;;;6.03;100.00;102108.56;5072813;28;20179;-76
2021/12/19 02:33:00;;;;;;;3.50;1.17;;;;;;;6.03;100.00;102105.84;5072527;28;20194;-77
2021/12/19 02:35:30;;;;;;;0.50;0.50;;;;;;;6.05;100.00;102097.47;5072332;28;20636;-77
2021/12/19 02:40:36;;;;;;;1.73;1.60;;;;;;;6.06;100.00;102108.09;5072668;28;20167;-77
2021/12/19 02:48:30;;;;;;;1.47;1.37;;;;;;;6.06;100.00;102096.41;5072436;28;20266;-77
2021/12/19 02:50:57;;;;;;;1.50;1.40;;;;;;;6.07;100.00;102087.22;5070923;28;20373;-76
2021/12/19 02:53:34;;;;;;;0.50;0.50;;;;;;;6.08;100.00;102078.84;5072580;28;20240;-77
2021/12/19 02:56:05;;;;;;;1.40;1.13;;;;;;;6.08;100.00;102078.84;5072057;28;20200;-77
2021/12/19 02:58:33;;;;;;;1.17;1.07;;;;;;;6.10;100.00;102081.31;5072107;28;20249;-77
2021/12/19 03:01:00;;;;;;;1.53;1.43;;;;;;;6.10;100.00;102073.19;5072085;28;20213;-77
2021/12/19 03:03:25;;;;;;;0.20;0.20;;;;;;;6.09;100.00;102079.69;5072007;28;20205;-77
2021/12/19 03:05:51;;;;;;;0.87;0.87;;;;;;;6.10;100.00;102073.19;5071897;28;20199;-77
2021/12/19 03:08:16;;;;;;;1.17;0.63;;;;;;;6.12;100.00;102068.34;5071980;28;20181;-77
2021/12/19 03:18:55;;;;;;;0.33;0.33;;;;;;;6.08;100.00;102056.31;5071758;28;20185;-77
2021/12/19 03:21:24;;;;;;;1.80;1.70;;;;;;;6.07;100.00;102047.34;5071653;28;20187;-76
2021/12/19 03:23:49;;;;;;;0.57;0.57;;;;;;;6.09;100.00;102060.69;5071486;28;20213;-77
2021/12/19 03:26:15;;;;;;;0.57;0.57;;;;;;;6.10;100.00;102060.44;5071427;28;20594;-77
2021/12/19 03:28:40;;;;;;;0.93;0.70;;;;;;;6.10;100.00;102054.19;5071481;28;20187;-76
2021/12/19 03:31:06;;;;;;;1.50;1.40;;;;;;;6.13;100.00;102048.28;5071434;28;20288;-77
2021/12/19 03:33:32;;;;;;;1.10;1.10;;;;;;;6.11;100.00;102028.69;5071315;28;20229;-76
2021/12/19 03:35:57;;;;;;;0.90;0.90;;;;;;;6.12;100.00;102035.78;5071259;28;20223;-76
2021/12/19 03:38:25;;;;;;;1.60;1.43;;;;;;;6.14;100.00;102028.22;5071374;28;20265;-77
2021/12/19 03:40:55;;;;;;;1.70;0.80;;;;;;;6.13;100.00;102040.94;5071402;28;20174;-77
2021/12/19 03:43:23;;;;;;;0.80;0.50;;;;;;;6.14;100.00;102039.88;5069930;28;20716;-77
2021/12/19 03:45:49;;;;;;;0.93;0.93;;;;;;;6.16;100.00;102051.31;5070880;28;20261;-76
2021/12/19 03:48:16;;;;;;;2.07;1.70;;;;;;;6.17;100.00;102041.28;5071149;28;20744;-77
2021/12/19 03:50:46;;;;;;;2.60;2.27;;;;;;;6.16;100.00;102034.22;5071131;28;20175;-77
2021/12/19 03:53:13;;;;;;;1.53;1.03;;;;;;;6.16;100.00;102042.34;5070954;28;20213;-76
2021/12/19 03:55:39;;;;;;;1.83;1.73;;;;;;;6.16;100.00;102040.47;5070887;28;20171;-76
2021/12/19 03:58:05;;;;;;;1.30;1.30;;;;;;;6.16;100.00;102032.31;5070939;28;20262;-77
2021/12/19 04:00:31;;;;;;;2.40;2.07;;;;;;;6.14;100.00;102026.31;5071050;28;20313;-77
2021/12/19 04:03:00;;;;;;;4.80;1.33;;;;;;;6.15;100.00;102025.25;5071048;28;20177;-77
2021/12/19 04:05:27;;;;;;;1.63;1.53;;;;;;;6.13;100.00;102021.97;5071191;28;20171;-76
2021/12/19 04:07:53;;;;;;;2.77;2.13;;;;;;;6.13;100.00;102019.25;5070890;28;20259;-76
2021/12/19 04:10:21;;;;;;;2.63;2.43;;;;;;;6.14;100.00;102012.75;5070244;28;20269;-77
2021/12/19 04:12:46;;;;;;;1.53;1.13;;;;;;;6.13;100.00;102010.28;5068922;28;20268;-77
2021/12/19 04:15:11;;;;;;;0.60;0.60;;;;;;;6.14;100.00;102020.06;5070516;28;20627;-76
2021/12/19 04:17:38;;;;;;;0.17;0.17;;;;;;;6.14;100.00;102023.59;5070770;28;20181;-76
2021/12/19 04:20:05;;;;;;;4.20;0.63;;;;;;;6.15;100.00;102027.97;5070677;28;20171;-77
2021/12/19 04:22:31;;;;;;;0.80;0.80;;;;;;;6.15;100.00;102013.56;5070464;28;20186;-75
2021/12/19 04:24:56;;;;;;;1.90;1.60;;;;;;;6.14;100.00;101984.78;5070305;28;20175;-77
2021/12/19 04:27:22;;;;;;;0.70;0.70;;;;;;;6.15;100.00;101991.88;5070539;28;20179;-76
2021/12/19 04:29:49;;;;;;;1.37;0.93;;;;;;;6.15;100.00;101994.56;5070647;28;20167;-76
2021/12/19 04:32:17;;;;;;;0.90;0.87;;;;;;;6.14;100.00;101991.03;5070502;28;20635;-76
2021/12/19 04:34:42;;;;;;;1.20;1.10;;;;;;;6.12;100.00;101982.31;5070511;28;20174;-76
2021/12/19 04:39:57;;;;;;;1.20;1.10;;;;;;;6.10;100.00;101976.31;5071664;28;20178;-76
2021/12/19 04:56:15;;;;;;;3.90;0.70;;;;;;;6.05;100.00;101975.38;5077190;28;20204;-77
2021/12/19 05:04:05;;;;;;;0.63;0.50;;;;;;;6.03;100.00;101962.06;5076964;28;20174;-77
2021/12/19 05:14:51;;;;;;;1.87;1.43;;;;;;;6.08;100.00;101983.06;5053396;28;20186;-76
2021/12/19 05:17:22;;;;;;;1.13;0.73;;;;;;;6.09;100.00;101968.44;5077068;28;20213;-77
2021/12/19 05:20:05;;;;;;;0.23;0.17;;;;;;;6.10;100.00;101976.31;5076995;28;20170;-77
2021/12/19 05:22:34;;;;;;;0.40;0.33;;;;;;;6.10;100.00;101973.63;5075657;28;20544;-76
2021/12/19 05:25:14;;;;;;;1.50;1.40;;;;;;;6.08;100.00;101943.19;5076363;28;20176;-77
2021/12/19 05:27:41;;;;;;;0.73;0.73;;;;;;;6.06;100.00;101923.59;5076882;28;20170;-77
2021/12/19 05:30:07;;;;;;;2.03;0.83;;;;;;;6.07;100.00;101927.94;5076732;28;20265;-76
2021/12/19 05:32:32;;;;;;;0.70;0.70;;;;;;;6.10;100.00;101941.06;5076608;28;20257;-77
2021/12/19 05:34:57;;;;;;;0.97;0.97;;;;;;;6.10;100.00;101941.06;5076685;28;20198;-77
2021/12/19 05:45:55;;;;;;;1.37;1.17;;;;;;;6.17;100.00;101943.59;5034148;28;20721;-77
2021/12/19 05:48:20;;;;;;;0.67;0.67;;;;;;;6.17;100.00;101949.84;5058848;28;20186;-76
2021/12/19 05:50:46;;;;;;;0.67;0.67;;;;;;;6.17;100.00;101936.28;5076637;28;20186;-77
2021/12/19 05:53:12;;;;;;;0.80;0.80;;;;;;;6.17;100.00;101936.28;5073401;28;20202;-76
2021/12/19 05:55:38;;;;;;;0.70;0.70;;;;;;;6.20;100.00;101949.34;5073089;28;20174;-76
2021/12/19 05:58:04;;;;;;;2.03;1.93;;;;;;;6.22;100.00;101943.66;5073399;28;20563;-77
2021/12/19 06:00:29;;;;;;;1.93;1.77;;;;;;;6.22;100.00;101938.25;5073293;28;20256;-77
2021/12/19 06:02:55;;;;;;;5.40;2.60;;;;;;;6.24;100.00;101934.25;5071842;28;20187;-76
2021/12/19 06:05:21;;;;;;;2.20;1.47;;;;;;;6.25;100.00;101946.75;5073037;28;20171;-77
2021/12/19 06:07:46;;;;;;;4.43;1.57;;;;;;;6.25;100.00;101943.22;5073141;28;20212;-76
2021/12/19 06:10:12;;;;;;;6.77;2.67;;;;;;;6.25;100.00;101946.75;5072922;28;20186;-77
2021/12/19 06:12:38;;;;;;;2.30;1.27;;;;;;;6.23;100.00;101937.22;5072931;28;20225;-76
2021/12/19 06:15:09;;;;;;;1.57;1.47;;;;;;;6.22;100.00;101938.25;5072768;28;20483;-76
2021/12/19 06:17:35;;;;;;;3.80;2.97;;;;;;;6.22;100.00;101943.66;5073016;28;20174;-77
2021/12/19 06:20:01;;;;;;;2.60;2.37;;;;;;;6.22;100.00;101941.81;5073002;28;20211;-76
2021/12/19 06:22:26;;;;;;;3.80;3.47;;;;;;;6.22;100.00;101927.38;5072953;28;20623;-77
2021/12/19 06:24:51;;;;;;;2.50;1.73;;;;;;;6.20;100.00;101924.94;5072423;28;20171;-77
2021/12/19 06:27:17;;;;;;;1.97;1.07;;;;;;;6.19;100.00;101927.88;5073056;28;20283;-77
2021/12/19 06:29:42;;;;;;;1.77;1.53;;;;;;;6.17;100.00;101913.75;5072442;28;20185;-77
2021/12/19 06:32:08;;;;;;;3.20;2.80;;;;;;;6.16;100.00;101931.91;5071457;28;20630;-76
2021/12/19 06:34:33;;;;;;;0.70;0.70;;;;;;;6.17;100.00;101919.19;5072820;28;20202;-76
2021/12/19 06:36:59;;;;;;;8.20;2.37;;;;;;;6.17;100.00;101919.19;5072328;28;20174;-77
2021/12/19 06:39:24;;;;;;;2.30;2.10;;;;;;;6.17;100.00;101921.88;5072569;28;20178;-76
2021/12/19 06:41:50;;;;;;;1.83;1.73;;;;;;;6.17;100.00;101927.31;5072362;28;20518;-77
2021/12/19 06:44:16;;;;;;;1.63;1.53;;;;;;;6.14;100.00;101920.50;5071109;28;20209;-76
2021/12/19 06:46:42;;;;;;;2.20;2.10;;;;;;;6.16;100.00;101918.34;5072146;28;20622;-76
2021/12/19 06:49:08;;;;;;;2.83;1.60;;;;;;;6.16;100.00;101912.09;5072630;28;20209;-76
2021/12/19 06:51:34;;;;;;;1.93;1.83;;;;;;;6.16;100.00;101917.53;5072074;28;20170;-76
2021/12/19 06:53:59;;;;;;;3.23;2.97;;;;;;;6.17;100.00;101911.03;5072023;28;20199;-76
2021/12/19 06:56:25;;;;;;;1.70;1.60;;;;;;;6.15;100.00;101922.13;5071829;28;20170;-76
2021/12/19 06:58:50;;;;;;;1.63;1.53;;;;;;;6.17;100.00;101913.75;5072315;28;20540;-75
2021/12/19 07:01:16;;;;;;;2.00;1.90;;;;;;;6.15;100.00;101905.03;5072265;28;20650;-77
2021/12/19 07:03:41;;;;;;;1.80;1.70;;;;;;;6.14;100.00;101901.50;5071369;28;20676;-76
2021/12/19 07:06:07;;;;;;;1.90;1.23;;;;;;;6.13;100.00;101905.28;5072049;28;20170;-75
2021/12/19 07:08:32;;;;;;;1.23;1.13;;;;;;;6.13;100.00;101896.31;5071761;28;20174;-76
2021/12/19 07:10:57;;;;;;;1.97;1.80;;;;;;;6.14;100.00;101887.94;5071596;28;20542;-77
2021/12/19 07:13:23;;;;;;;1.20;0.90;;;;;;;6.14;100.00;101898.78;5071802;28;20289;-77
2021/12/19 07:15:49;;;;;;;1.57;1.47;;;;;;;6.14;100.00;101892.53;5071306;28;20258;-77
2021/12/19 07:18:15;;;;;;;3.40;2.33;;;;;;;6.14;100.00;101897.97;5071708;28;20208;-76
2021/12/19 07:20:43;;;;;;;2.73;2.53;;;;;;;6.12;100.00;101890.06;5072074;28;20545;-76
2021/12/19 07:23:11;;;;;;;1.23;1.13;;;;;;;6.12;100.00;101887.34;5071248;28;20186;-76
2021/12/19 07:25:37;;;;;;;1.53;1.43;;;;;;;6.12;100.00;101886.53;5071426;28;20166;-76
2021/12/19 07:28:02;;;;;;;1.10;1.10;;;;;;;6.09;100.00;101889.75;5071671;28;20244;-76
2021/12/19 07:30:27;;;;;;;1.83;1.43;;;;;;;6.06;100.00;101890.22;5071540;28;20209;-76
2021/12/19 07:32:54;;;;;;;1.77;1.10;;;;;;;6.08;100.00;101888.09;5069927;28;20289;-76
2021/12/19 07:35:21;;;;;;;3.73;0.83;;;;;;;6.06;100.00;101874.75;5071107;28;20166;-76
2021/12/19 07:37:49;;;;;;;1.60;1.50;;;;;;;6.07;100.00;101873.69;5071492;28;20181;-76
2021/12/19 07:40:17;;;;;;;4.57;4.18;;;;;;;6.11;100.00;101879.47;5068893;28;20414;-75
2021/12/19 07:42:43;;;;;;;2.50;1.77;;;;;;;6.13;100.00;101869.19;5071074;28;20600;-74
2021/12/19 07:45:10;;;;;;;1.50;1.40;;;;;;;6.12;100.00;101862.13;5070988;28;20217;-75
2021/12/19 07:47:38;;;;;;;3.20;1.13;;;;;;;6.09;100.00;101866.16;5071124;28;20265;-74
2021/12/19 07:50:03;;;;;;;3.50;0.53;;;;;;;6.09;100.00;101854.47;5071155;28;20528;-75
2021/12/19 07:52:29;;;;;;;2.37;0.50;;;;;;;6.09;100.00;101868.03;5070761;28;20326;-75
2021/12/19 07:54:54;;;;;;;0.20;0.20;;;;;;;6.08;100.00;101861.81;5071334;28;20257;-75
2021/12/19 07:57:19;;;;;;;1.73;0.80;;;;;;;6.08;100.00;101848.22;5079914;28;20184;-74
2021/12/19 07:59:45;;;;;;;1.03;0.90;;;;;;;6.08;100.00;101869.94;5077296;28;20228;-74
2021/12/19 08:02:11;;;;;;;1.23;0.87;;;;;;;6.07;100.00;101854.69;5072461;28;20575;-74
2021/12/19 08:04:37;;;;;;;4.23;1.73;;;;;;;6.04;100.00;101859.81;5071583;28;20244;-74
2021/12/19 08:07:02;;;;;;;0.50;0.50;;;;;;;5.98;100.00;101853.47;5071015;28;20170;-74
2021/12/19 08:09:40;;;;;;;0.60;0.47;;;;;;;5.99;100.00;101857.00;5071119;28;20269;-74
2021/12/19 08:12:06;;;;;;;2.47;1.60;;;;;;;5.97;100.00;101865.41;5071047;28;20259;-74
2021/12/19 08:14:32;;;;;;;0.40;0.40;;;;;;;5.99;100.00;101859.72;5070326;28;20576;-73
2021/12/19 08:16:58;;;;;;;1.60;0.50;;;;;;;5.97;100.00;101857.25;5070248;28;20170;-74
2021/12/19 08:19:23;;;;;;;7.37;0.40;;;;;;;5.97;100.00;101862.69;5070823;28;20179;-74
2021/12/19 08:21:48;;;;;;;14.50;1.07;;;;;;;5.95;100.00;101851.28;5067167;28;20190;-74
2021/12/19 08:24:14;;;;;;;0.90;0.77;;;;;;;5.95;100.00;101860.22;5070517;28;20191;-74
2021/12/19 08:26:43;;;;;;;3.70;0.37;;;;;;;5.96;100.00;101848.31;5070683;28;20228;-74
2021/12/19 08:29:11;;;;;;;0.37;0.20;;;;;;;5.99;100.00;101847.00;5070495;28;20579;-74
2021/12/19 08:31:36;;;;;;;0.60;0.40;;;;;;;6.01;100.00;101854.88;5070646;28;20415;-74
2021/12/19 08:34:02;;;;;;;0.83;0.83;;;;;;;6.02;100.00;101859.22;5069195;28;20213;-74
2021/12/19 08:36:27;;;;;;;0.77;0.50;;;;;;;6.01;100.00;101846.75;5070611;28;20631;-74
2021/12/19 08:38:53;;;;;;;1.07;1.03;;;;;;;6.03;100.00;101836.47;5070177;28;20179;-75
2021/12/19 08:41:19;;;;;;;5.93;1.83;;;;;;;6.06;100.00;101844.09;5070414;28;20187;-74
2021/12/19 08:43:45;;;;;;;2.53;1.87;;;;;;;6.09;100.00;101849.88;5070524;28;20174;-74
2021/12/19 08:46:11;;;;;;;0.40;0.40;;;;;;;6.10;100.00;101843.38;5070325;28;20436;-75
2021/12/19 08:48:37;;;;;;;1.00;1.00;;;;;;;6.09;100.00;101839.03;5070485;28;20179;-75
2021/12/19 08:51:03;;;;;;;2.27;1.80;;;;;;;6.08;100.00;101840.09;5070030;28;20556;-74
2021/12/19 08:53:29;;;;;;;1.83;0.97;;;;;;;6.06;100.00;101838.66;5069442;28;20252;-74
2021/12/19 08:55:54;;;;;;;1.10;0.50;;;;;;;6.07;100.00;101837.59;5069774;28;20182;-75
2021/12/19 08:58:19;;;;;;;1.83;1.47;;;;;;;6.08;100.00;101836.56;5070328;28;20166;-74
2021/12/19 09:00:45;;;;;;;0.83;0.83;;;;;;;6.10;100.00;101831.72;5070212;28;20569;-74
2021/12/19 09:03:10;;;;;;;1.37;1.23;;;;;;;6.11;100.00;101819.78;5069704;28;20178;-74
2021/12/19 09:05:36;;;;;;;4.83;1.20;;;;;;;6.13;100.00;101834.75;5069850;28;20261;-75
2021/12/19 09:08:02;;;;;;;2.00;0.53;;;;;;;6.14;100.00;101832.84;5068741;28;20285;-74
2021/12/19 09:10:27;;;;;;;2.03;1.07;;;;;;;6.13;100.00;101833.91;5069694;28;20221;-75
2021/12/19 09:12:53;;;;;;;0.80;0.80;;;;;;;6.12;100.00;101841.25;5069807;28;20198;-75
2021/12/19 09:15:20;;;;;;;1.97;1.70;;;;;;;6.12;100.00;101832.28;5068527;28;20626;-75
2021/12/19 09:17:45;;;;;;;2.10;1.87;;;;;;;6.14;100.00;101843.69;5069891;28;20266;-80
2021/12/19 09:20:11;;;;;;;0.33;0.33;;;;;;;6.16;100.00;101846.97;5069948;28;20281;-75
2021/12/19 09:22:37;;;;;;;1.00;0.70;;;;;;;6.16;100.00;101842.38;5069830;28;20699;-78
2021/12/19 09:25:03;;;;;;;4.30;1.60;;;;;;;6.17;100.00;101848.63;5069412;28;20182;-75
2021/12/19 09:27:29;;;;;;;1.43;1.30;;;;;;;6.16;100.00;101836.94;5072844;28;20537;-73
2021/12/19 09:29:54;;;;;;;0.83;0.83;;;;;;;6.18;100.00;101842.13;5073981;28;20171;-73
2021/12/19 09:32:20;;;;;;;9.97;1.90;;;;;;;6.17;100.00;101841.31;5073844;28;20178;-73
2021/12/19 09:34:45;;;;;;;0.60;0.60;;;;;;;6.16;100.00;101831.53;5073587;28;20218;-73
2021/12/19 09:37:12;;;;;;;3.03;1.33;;;;;;;6.11;100.00;101833.34;5073718;28;20186;-73
2021/12/19 09:39:38;;;;;;;0.90;0.90;;;;;;;6.07;100.00;101837.59;5073732;28;20501;-73
2021/12/19 09:42:10;;;;;;;3.13;1.47;;;;;;;6.08;100.00;101834.66;5073811;28;20641;-74
2021/12/19 09:44:37;;;;;;;0.93;0.47;;;;;;;6.10;100.00;101837.94;5073547;28;20316;-75
2021/12/19 09:47:04;;;;;;;1.47;1.37;;;;;;;6.09;100.00;101817.31;5073383;28;20170;-75
2021/12/19 09:49:29;;;;;;;1.50;0.73;;;;;;;6.11;100.00;101825.22;5073657;28;20185;-75
2021/12/19 09:51:55;;;;;;;2.43;1.87;;;;;;;6.12;100.00;101830.38;5073357;28;20175;-75
2021/12/19 09:54:20;;;;;;;2.40;1.53;;;;;;;6.12;100.00;101827.66;5073279;28;20643;-75
2021/12/19 09:56:46;;;;;;;1.43;1.33;;;;;;;6.14;100.00;101822.00;5073261;28;20174;-75
2021/12/19 09:59:14;;;;;;;1.63;0.40;;;;;;;6.15;100.00;101820.91;5073332;28;20235;-75
2021/12/19 10:01:41;;;;;;;6.60;1.80;;;;;;;6.13;100.00;101810.31;5073320;28;20217;-75
2021/12/19 10:04:45;;;;;;;0.50;0.50;;;;;;;6.11;100.00;101812.47;5073679;28;20201;-74
2021/12/19 10:07:29;;;;;;;2.53;1.93;;;;;;;6.09;100.00;101803.75;5073454;28;20170;-73
2021/12/19 10:09:59;;;;;;;0.20;0.20;;;;;;;6.07;100.00;101794.19;5073030;28;20188;-74
2021/12/19 10:15:01;;;;;;;2.17;1.13;;;;;;;6.07;100.00;101796.91;5072865;28;20380;-74
2021/12/19 10:17:26;;;;;;;0.40;0.40;;;;;;;6.07;100.00;101796.91;5073136;28;20171;-74
2021/12/19 10:19:54;;;;;;;1.53;1.00;;;;;;;6.09;100.00;101787.47;5072910;28;20261;-74
2021/12/19 10:22:31;;;;;;;0.37;0.37;;;;;;;6.09;100.00;101784.75;5072915;28;20670;-74
2021/12/19 10:25:19;;;;;;;2.37;1.07;;;;;;;6.07;100.00;101788.75;5072478;28;20209;-74
2021/12/19 10:27:55;;;;;;;2.77;1.53;;;;;;;6.06;100.00;101781.69;5072828;28;20174;-73
2021/12/19 10:30:28;;;;;;;1.07;0.73;;;;;;;6.07;100.00;101783.34;5072821;28;20304;-74
2021/12/19 10:32:56;;;;;;;0.47;0.47;;;;;;;6.07;100.00;101778.75;5072530;28;20226;-73
2021/12/19 10:35:23;;;;;;;1.80;1.70;;;;;;;6.08;100.00;101779.59;5072537;28;20170;-75
2021/12/19 10:37:48;;;;;;;0.60;0.60;;;;;;;6.07;100.00;101777.91;5071696;28;20296;-74
2021/12/19 10:40:14;;;;;;;0.50;0.50;;;;;;;6.06;100.00;101763.53;5072312;28;20258;-75
2021/12/19 10:42:56;;;;;;;1.27;1.00;;;;;;;6.06;100.00;101762.72;5072051;28;20224;-75
2021/12/19 10:45:30;;;;;;;0.20;0.20;;;;;;;6.04;100.00;101749.41;5070097;28;20552;-74
2021/12/19 10:48:14;;;;;;;0.73;0.47;;;;;;;6.03;100.00;101746.94;5072140;28;20166;-74
2021/12/19 10:50:48;;;;;;;2.43;1.20;;;;;;;6.03;100.00;101746.94;5070825;28;20179;-75
2021/12/19 10:53:15;;;;;;;0.53;0.53;;;;;;;6.02;100.00;101748.84;5072032;28;20206;-74
2021/12/19 10:55:46;;;;;;;0.70;0.70;;;;;;;6.02;100.00;101745.28;5071868;28;20219;-74
2021/12/19 10:58:35;;;;;;;1.07;0.83;;;;;;;6.01;100.00;101741.75;5072409;28;20179;-74
2021/12/19 11:01:12;;;;;;;1.20;0.50;;;;;;;6.03;100.00;101745.03;5071933;28;20269;-74
2021/12/19 11:03:38;;;;;;;3.33;1.03;;;;;;;6.02;100.00;101742.59;5072215;28;20202;-75
2021/12/19 11:06:15;;;;;;;1.00;0.77;;;;;;;6.02;100.00;101737.16;5072059;28;20849;-74
2021/12/19 11:08:43;;;;;;;1.43;1.33;;;;;;;5.99;100.00;101738.47;5071603;28;20174;-75
2021/12/19 11:11:09;;;;;;;1.07;0.70;;;;;;;5.95;100.00;101731.91;5071745;28;20179;-75
2021/12/19 11:13:34;;;;;;;0.87;0.77;;;;;;;5.91;100.00;101731.56;5071770;28;20206;-75
2021/12/19 11:16:00;;;;;;;2.37;0.60;;;;;;;5.84;100.00;101725.47;5071398;28;20171;-75
2021/12/19 11:18:26;;;;;;;0.60;0.60;;;;;;;5.84;100.00;101717.34;5071617;28;20635;-75
2021/12/19 11:20:51;;;;;;;0.57;0.57;;;;;;;5.83;100.00;101726.56;5071532;28;20476;-75
2021/12/19 11:23:16;;;;;;;0.73;0.30;;;;;;;5.82;100.00;101716.78;5070919;28;20197;-75
2021/12/19 11:25:43;;;;;;;0.27;0.27;;;;;;;5.84;100.00;101692.13;5071213;28;20174;-75
2021/12/19 11:28:09;;;;;;;0.30;0.30;;;;;;;5.85;100.00;101699.19;5071369;28;20171;-75
2021/12/19 11:30:35;;;;;;;0.40;0.30;;;;;;;5.84;100.00;101694.84;5071455;28;20166;-75
2021/12/19 11:33:22;;;;;;;0.50;0.50;;;;;;;5.84;100.00;101698.38;5071208;28;20210;-75
2021/12/19 11:35:50;;;;;;;0.50;0.50;;;;;;;5.87;100.00;101691.63;5071082;28;20626;-74
2021/12/19 11:38:21;;;;;;;1.00;0.13;;;;;;;5.89;100.00;101709.28;5071199;28;20166;-75
2021/12/19 11:40:47;;;;;;;0.57;0.20;;;;;;;5.93;100.00;101696.91;5071047;28;20350;-75
2021/12/19 11:43:13;;;;;;;3.90;1.07;;;;;;;5.94;100.00;101700.44;5071181;28;20178;-74
2021/12/19 11:45:44;;;;;;;0.50;0.50;;;;;;;5.94;100.00;101706.69;5070949;28;20193;-75
2021/12/19 11:48:25;;;;;;;1.90;1.27;;;;;;;5.94;100.00;101689.59;5071078;28;20198;-75
2021/12/19 11:51:17;;;;;;;1.83;1.03;;;;;;;5.94;100.00;101689.59;5070947;28;20174;-74
2021/12/19 11:53:43;;;;;;;1.03;1.00;;;;;;;5.93;100.00;101686.06;5070921;28;20551;-75
2021/12/19 11:56:16;;;;;;;0.87;0.83;;;;;;;5.90;100.00;101683.81;5070781;28;20175;-75
2021/12/19 11:58:52;;;;;;;1.40;1.10;;;;;;;5.88;100.00;101683.22;5070791;28;20492;-75
2021/12/19 12:01:21;;;;;;;8.27;0.60;;;;;;;5.85;100.00;101672.88;5070809;28;20231;-74
2021/12/19 12:03:53;;;;;;;0.40;0.40;;;;;;;5.83;100.00;101674.22;5070745;28;20177;-75
2021/12/19 12:06:19;;;;;;;0.47;0.47;;;;;;;5.87;100.00;101667.22;5070525;28;20362;-75
2021/12/19 12:09:20;;;;;;;1.00;0.90;;;;;;;5.85;100.00;101651.19;5070500;28;20626;-75
2021/12/19 12:12:14;;;;;;;0.40;0.40;;;;;;;5.84;100.00;101641.41;5070640;28;20639;-75
2021/12/19 12:14:49;;;;;;;0.33;0.33;;;;;;;5.82;100.00;101635.44;5067064;28;20610;-75
2021/12/19 12:17:22;;;;;;;1.80;1.07;;;;;;;5.83;100.00;101625.41;5070732;28;20173;-75
2021/12/19 12:19:51;;;;;;;0.10;0.10;;;;;;;5.88;100.00;101629.00;5070777;28;20193;-74
2021/12/19 12:22:23;;;;;;;0.93;0.60;;;;;;;5.90;100.00;101623.34;5070574;28;20257;-75
2021/12/19 12:25:17;;;;;;;0.77;0.77;;;;;;;5.90;100.00;101618.72;5069971;28;20179;-75
2021/12/19 12:27:46;;;;;;;1.10;1.00;;;;;;;5.93;100.00;101615.53;5069303;28;20188;-75
2021/12/19 12:30:18;;;;;;;1.07;1.00;;;;;;;5.93;100.00;101622.84;5070498;28;20514;-75